Linndale, Ohio
Current Conditions -  °F | °C
As of 6:51 PM on Saturday 22 Nov 2014 (Local Time) from KCLE Reporting Station
Overcast Overcast  
Wind Chill: 40°   Ceiling: 6000
Heat Index: 46°   Visibility: 10mi
Dew Point: 35°   Wind: 14mph
Humidity: 66%   Direction: 190°S
Pressure: 30.06"   Gusts: NA
Location:  41.4315°N, 81.8114°W
Report Text: KCLE 222351Z 19012KT 10SM OVC060 08/02 A3006 RMK AO2 SLP183 60001 T00780017 10078 20050 58004 $
Loading
Personal Weather Stations






























Interactive Weather Map New forecast layout! Learn more

10-Day Weather Forecast

Advertisements
Track Severe Weather on mobile